createdAt,value
2023-02-18T00:01:46.352Z,13.18
2023-02-18T00:04:14.991Z,13.50
2023-02-18T00:06:43.575Z,11.10
2023-02-18T00:09:12.457Z,9.70
2023-02-18T00:11:41.143Z,9.23
2023-02-18T00:14:12.321Z,10.93
2023-02-18T00:16:42.528Z,9.05
2023-02-18T00:19:15.365Z,7.90
2023-02-18T00:21:44.076Z,8.13
2023-02-18T00:24:15.444Z,8.35
2023-02-18T00:26:44.101Z,9.45
2023-02-18T00:29:12.360Z,9.98
2023-02-18T00:31:42.858Z,8.85
2023-02-18T00:34:12.700Z,6.50
2023-02-18T00:36:41.473Z,7.57
2023-02-18T00:39:11.220Z,4.90
2023-02-18T00:41:40.082Z,5.63
2023-02-18T00:44:08.815Z,3.65
2023-02-18T00:46:37.946Z,3.97
2023-02-18T00:49:08.647Z,4.20
2023-02-18T00:51:38.734Z,4.50
2023-02-18T00:54:07.236Z,3.58
2023-02-18T00:56:35.760Z,3.78
2023-02-18T00:59:04.593Z,3.67
2023-02-18T01:01:33.436Z,5.63
2023-02-18T01:04:01.929Z,2.75
2023-02-18T01:06:32.143Z,3.80
2023-02-18T01:09:00.683Z,3.38
2023-02-18T01:11:29.753Z,2.72
2023-02-18T01:13:58.089Z,4.45
2023-02-18T01:16:27.055Z,3.97
2023-02-18T01:18:55.372Z,6.15
2023-02-18T01:21:23.880Z,3.92
2023-02-18T01:23:53.801Z,3.22
2023-02-18T01:26:22.617Z,4.32
2023-02-18T01:28:50.948Z,3.72
2023-02-18T01:31:19.802Z,3.97
2023-02-18T01:33:48.230Z,3.22
2023-02-18T01:36:16.959Z,5.10
2023-02-18T01:38:45.187Z,5.22
2023-02-18T01:41:15.364Z,4.25
2023-02-18T01:43:43.666Z,3.13
2023-02-18T01:46:18.544Z,2.58
2023-02-18T01:48:51.802Z,2.35
2023-02-18T01:51:23.663Z,3.22
2023-02-18T01:53:55.690Z,4.05
2023-02-18T01:56:31.424Z,2.38
2023-02-18T01:59:03.252Z,2.10
2023-02-18T02:01:32.719Z,2.97
2023-02-18T02:04:01.044Z,2.15
2023-02-18T02:06:29.959Z,1.63
2023-02-18T02:09:01.212Z,2.35
2023-02-18T02:11:56.747Z,4.78
2023-02-18T02:14:36.273Z,3.13
2023-02-18T02:17:08.920Z,2.33
2023-02-18T02:19:55.618Z,2.88
2023-02-18T02:22:54.414Z,2.15
2023-02-18T02:25:34.366Z,2.75
2023-02-18T02:28:36.164Z,3.22
2023-02-18T02:31:26.146Z,4.20
2023-02-18T02:34:37.837Z,2.30
2023-02-18T02:37:12.013Z,1.98
2023-02-18T02:39:47.588Z,2.97
2023-02-18T02:42:21.670Z,3.28
2023-02-18T02:44:56.520Z,4.03
2023-02-18T02:47:29.787Z,4.00
2023-02-18T02:50:03.359Z,5.10
2023-02-18T02:52:35.224Z,4.85
2023-02-18T02:55:07.060Z,5.10
2023-02-18T02:57:52.901Z,3.00
2023-02-18T03:00:25.249Z,3.65
2023-02-18T03:03:32.000Z,6.75
2023-02-18T03:06:12.753Z,5.45
2023-02-18T03:08:50.847Z,2.17
2023-02-18T03:11:19.963Z,2.92
2023-02-18T03:13:58.465Z,2.60
2023-02-18T03:16:29.831Z,2.85
2023-02-18T03:19:03.400Z,3.22
2023-02-18T03:21:33.863Z,2.58
2023-02-18T03:24:07.728Z,3.97
2023-02-18T03:26:40.356Z,3.70
2023-02-18T03:29:10.216Z,3.15
2023-02-18T03:31:40.681Z,3.38
2023-02-18T03:34:11.194Z,2.78
2023-02-18T03:36:40.372Z,2.88
2023-02-18T03:39:12.848Z,4.60
2023-02-18T03:41:41.758Z,3.15
2023-02-18T03:44:11.256Z,2.55
2023-02-18T03:46:43.715Z,4.03
2023-02-18T03:49:12.913Z,4.20
2023-02-18T03:51:42.036Z,2.70
2023-02-18T03:54:14.408Z,3.40
2023-02-18T03:56:43.716Z,4.00
2023-02-18T03:59:13.443Z,4.40
2023-02-18T04:01:42.697Z,4.57
2023-02-18T04:04:11.523Z,3.03
2023-02-18T04:06:40.216Z,5.70
2023-02-18T04:09:09.492Z,3.78
2023-02-18T04:11:40.961Z,5.25
2023-02-18T04:14:09.943Z,2.33
2023-02-18T04:16:39.000Z,2.25
2023-02-18T04:19:07.339Z,2.15
2023-02-18T04:21:36.319Z,1.48
2023-02-18T04:24:05.016Z,1.80
2023-02-18T04:26:33.721Z,5.43
2023-02-18T04:29:03.649Z,3.38
2023-02-18T04:31:32.375Z,1.70
2023-02-18T04:34:01.260Z,2.33
2023-02-18T04:36:29.945Z,1.33
2023-02-18T04:38:58.285Z,1.85
2023-02-18T04:41:27.059Z,2.58
2023-02-18T04:43:55.407Z,1.48
2023-02-18T04:46:25.779Z,1.77
2023-02-18T04:48:56.957Z,2.33
2023-02-18T04:51:25.616Z,1.35
2023-02-18T04:53:53.998Z,2.22
2023-02-18T04:56:22.680Z,1.75
2023-02-18T04:58:51.141Z,2.45
2023-02-18T05:01:19.931Z,2.85
2023-02-18T05:03:50.497Z,2.83
2023-02-18T05:06:19.502Z,3.30
2023-02-18T05:08:47.847Z,4.50
2023-02-18T05:11:16.729Z,2.95
2023-02-18T05:13:44.900Z,3.78
2023-02-18T05:16:14.119Z,4.00
2023-02-18T05:18:42.846Z,2.88
2023-02-18T05:21:13.158Z,4.40
2023-02-18T05:23:41.510Z,2.90
2023-02-18T05:26:10.575Z,3.90
2023-02-18T05:28:38.991Z,3.45
2023-02-18T05:31:07.886Z,4.13
2023-02-18T05:33:36.187Z,3.00
2023-02-18T05:36:06.093Z,3.83
2023-02-18T05:38:35.792Z,4.07
2023-02-18T05:41:04.603Z,3.85
2023-02-18T05:43:53.772Z,6.45
2023-02-18T05:46:22.698Z,2.85
2023-02-18T05:48:51.115Z,4.53
2023-02-18T05:51:19.796Z,5.93
2023-02-18T05:53:49.714Z,5.47
2023-02-18T05:56:18.325Z,4.82
2023-02-18T05:58:46.978Z,5.82
2023-02-18T06:01:15.590Z,4.07
2023-02-18T06:03:43.837Z,5.03
2023-02-18T06:06:13.536Z,5.00
2023-02-18T06:08:42.102Z,4.45
2023-02-18T06:11:12.244Z,4.80
2023-02-18T06:13:40.875Z,4.68
2023-02-18T06:16:09.899Z,4.00
2023-02-18T06:18:38.646Z,3.05
2023-02-18T06:21:07.544Z,2.60
2023-02-18T06:23:36.138Z,3.22
2023-02-18T06:26:05.077Z,2.42
2023-02-18T06:28:35.568Z,2.92
2023-02-18T06:31:04.412Z,2.65
2023-02-18T06:33:32.798Z,2.53
2023-02-18T06:36:03.336Z,3.08
2023-02-18T06:38:31.811Z,2.90
2023-02-18T06:41:00.840Z,2.08
2023-02-18T06:43:29.089Z,2.58
2023-02-18T06:45:59.532Z,3.35
2023-02-18T06:48:28.390Z,4.88
2023-02-18T06:50:58.031Z,7.32
2023-02-18T06:53:28.083Z,4.60
2023-02-18T06:55:56.737Z,4.68
2023-02-18T06:58:25.808Z,6.10
2023-02-18T07:00:54.428Z,5.10
2023-02-18T07:03:24.107Z,5.13
2023-02-18T07:05:54.074Z,3.78
2023-02-18T07:08:22.415Z,4.72
2023-02-18T07:10:52.048Z,4.25
2023-02-18T07:13:20.420Z,5.13
2023-02-18T07:15:49.073Z,4.22
2023-02-18T07:18:17.652Z,4.55
2023-02-18T07:20:48.126Z,2.45
2023-02-18T07:23:16.505Z,3.55
2023-02-18T07:25:46.612Z,3.13
2023-02-18T07:28:14.994Z,5.25
2023-02-18T07:30:43.653Z,3.75
2023-02-18T07:33:12.086Z,6.15
2023-02-18T07:35:40.848Z,4.78
2023-02-18T07:38:10.603Z,4.25
2023-02-18T07:40:39.130Z,2.88
2023-02-18T07:43:07.835Z,1.95
2023-02-18T07:45:36.559Z,2.00
2023-02-18T07:48:05.268Z,1.77
2023-02-18T07:50:35.317Z,2.45
2023-02-18T07:53:06.575Z,3.78
2023-02-18T07:55:50.012Z,3.88
2023-02-18T07:58:19.695Z,4.60
2023-02-18T08:00:49.529Z,5.32
2023-02-18T08:03:19.906Z,4.13
2023-02-18T08:05:50.388Z,6.40
2023-02-18T08:08:21.754Z,6.38
2023-02-18T08:10:52.370Z,9.98
2023-02-18T08:13:21.003Z,6.55
2023-02-18T08:15:49.624Z,3.60
2023-02-18T08:18:19.621Z,6.00
2023-02-18T08:20:48.268Z,5.15
2023-02-18T08:23:17.685Z,7.88
2023-02-18T08:25:49.786Z,4.93
2023-02-18T08:28:21.248Z,4.63
2023-02-18T08:30:50.850Z,6.60
2023-02-18T08:33:20.567Z,3.10
2023-02-18T08:35:50.364Z,4.07
2023-02-18T08:38:19.574Z,3.47
2023-02-18T08:40:48.174Z,5.22
2023-02-18T08:43:17.626Z,3.58
2023-02-18T08:45:47.628Z,3.90
2023-02-18T08:48:20.445Z,2.63
2023-02-18T08:50:49.220Z,4.82
2023-02-18T08:53:18.030Z,4.95
2023-02-18T08:55:46.420Z,6.60
2023-02-18T08:58:15.151Z,12.77
2023-02-18T09:00:44.536Z,104.00
2023-02-18T09:03:15.475Z,12.85
2023-02-18T09:05:43.850Z,6.03
2023-02-18T09:08:12.366Z,6.55
2023-02-18T09:10:40.749Z,5.32
2023-02-18T09:13:09.321Z,5.15
2023-02-18T09:15:37.567Z,6.43
2023-02-18T09:18:06.444Z,6.70
2023-02-18T09:20:36.283Z,5.60
2023-02-18T09:23:04.876Z,6.50
2023-02-18T09:25:33.173Z,6.72
2023-02-18T09:28:02.219Z,6.95
2023-02-18T09:30:30.648Z,6.25
2023-02-18T09:32:59.467Z,6.70
2023-02-18T09:35:28.309Z,5.75
2023-02-18T09:37:58.419Z,7.78
2023-02-18T09:40:29.351Z,9.50
2023-02-18T09:42:59.010Z,7.28
2023-02-18T09:45:27.655Z,7.70
2023-02-18T09:47:56.525Z,6.97
2023-02-18T09:50:27.898Z,5.65
2023-02-18T09:52:59.397Z,5.82
2023-02-18T09:55:31.990Z,5.93
2023-02-18T09:58:03.819Z,4.22
2023-02-18T10:00:34.507Z,6.63
2023-02-18T10:03:06.547Z,6.05
2023-02-18T10:05:35.750Z,5.25
2023-02-18T10:08:08.556Z,8.18
2023-02-18T10:10:40.834Z,4.60
2023-02-18T10:13:15.220Z,4.90
2023-02-18T10:15:44.736Z,6.82
2023-02-18T10:18:26.991Z,7.38
2023-02-18T10:21:00.103Z,5.78
2023-02-18T10:23:31.142Z,6.70
2023-02-18T10:26:00.556Z,4.05
2023-02-18T10:28:29.584Z,5.05
2023-02-18T10:31:00.947Z,3.97
2023-02-18T10:33:35.246Z,5.07
2023-02-18T10:36:19.846Z,9.38
2023-02-18T10:39:11.214Z,3.78
2023-02-18T10:41:44.362Z,6.15
2023-02-18T10:44:19.018Z,5.15
2023-02-18T10:46:51.674Z,6.13
2023-02-18T10:49:39.472Z,7.95
2023-02-18T10:52:08.486Z,5.28
2023-02-18T10:54:55.526Z,5.65
2023-02-18T10:57:25.172Z,7.57
2023-02-18T11:00:00.115Z,11.25
2023-02-18T11:02:31.784Z,7.20
2023-02-18T11:05:02.884Z,9.13
2023-02-18T11:07:33.305Z,8.52
2023-02-18T11:10:12.048Z,7.95
2023-02-18T11:12:45.850Z,8.02
2023-02-18T11:15:20.780Z,7.13
2023-02-18T11:17:50.582Z,5.78
2023-02-18T11:20:32.588Z,7.93
2023-02-18T11:23:16.995Z,7.72
2023-02-18T11:25:58.015Z,5.07
2023-02-18T11:28:41.810Z,8.27
2023-02-18T11:31:12.261Z,7.00
2023-02-18T11:33:41.879Z,8.25
2023-02-18T11:36:20.519Z,6.20
2023-02-18T11:38:50.729Z,5.10
2023-02-18T11:41:23.601Z,8.23
2023-02-18T11:43:53.656Z,6.60
2023-02-18T11:46:24.304Z,15.15
2023-02-18T11:48:52.976Z,14.10
2023-02-18T11:51:25.050Z,5.78
2023-02-18T11:54:04.015Z,5.03
2023-02-18T11:56:35.703Z,6.28
2023-02-18T12:01:40.147Z,7.78
2023-02-18T12:04:13.927Z,9.18
2023-02-18T12:06:48.456Z,11.00
2023-02-18T12:09:24.054Z,11.07
2023-02-18T12:11:55.510Z,8.05
2023-02-18T12:14:25.409Z,11.98
2023-02-18T12:17:15.378Z,8.15
2023-02-18T12:20:06.644Z,8.30
2023-02-18T12:22:43.367Z,7.60
2023-02-18T12:25:24.194Z,9.35
2023-02-18T12:27:59.401Z,10.18
2023-02-18T12:31:03.351Z,11.38
2023-02-18T12:33:40.303Z,10.95
2023-02-18T12:36:15.997Z,10.30
2023-02-18T12:39:10.621Z,12.30
2023-02-18T12:41:54.865Z,10.43
2023-02-18T12:44:45.406Z,8.27
2023-02-18T12:47:28.186Z,15.50
2023-02-18T12:50:07.854Z,21.45
2023-02-18T12:52:42.938Z,17.25
2023-02-18T12:55:28.028Z,17.17
2023-02-18T12:58:07.103Z,18.00
2023-02-18T13:00:50.046Z,28.67
2023-02-18T13:03:47.182Z,23.90
2023-02-18T13:06:25.754Z,17.92
2023-02-18T13:09:04.880Z,13.05
2023-02-18T13:11:48.410Z,15.93
2023-02-18T13:14:20.398Z,17.15
2023-02-18T13:16:53.827Z,11.85
2023-02-18T13:19:24.531Z,34.08
2023-02-18T13:21:56.674Z,17.50
2023-02-18T13:24:31.437Z,18.48
2023-02-18T13:27:06.699Z,18.60
2023-02-18T13:29:38.757Z,31.75
2023-02-18T13:32:15.387Z,21.45
2023-02-18T13:34:48.636Z,14.57
2023-02-18T13:37:24.324Z,16.85
2023-02-18T13:39:54.600Z,12.00
2023-02-18T13:42:34.793Z,20.20
2023-02-18T13:45:28.517Z,26.83
2023-02-18T13:47:59.210Z,16.88
2023-02-18T13:50:41.842Z,23.27
2023-02-18T13:53:24.012Z,33.20
2023-02-18T13:55:58.919Z,19.33
2023-02-18T13:58:33.225Z,20.00
2023-02-18T14:01:04.061Z,19.92
2023-02-18T14:06:17.709Z,22.08
2023-02-18T14:08:47.515Z,19.92
2023-02-18T14:11:37.035Z,20.60
2023-02-18T14:14:28.691Z,23.05
2023-02-18T14:19:45.192Z,42.33
2023-02-18T14:22:30.796Z,35.42
2023-02-18T14:25:05.558Z,21.15
2023-02-18T14:27:33.957Z,18.65
2023-02-18T14:30:07.487Z,17.00
2023-02-18T14:32:36.136Z,19.92
2023-02-18T14:35:17.119Z,24.45
2023-02-18T14:37:57.099Z,23.55
2023-02-18T14:40:41.177Z,20.20
2023-02-18T14:43:18.940Z,25.00
2023-02-18T14:46:15.518Z,23.30
2023-02-18T14:48:52.948Z,32.17
2023-02-18T14:51:25.567Z,25.45
2023-02-18T14:53:54.310Z,26.05
2023-02-18T14:56:23.611Z,68.60
2023-02-18T14:58:54.048Z,33.65
2023-02-18T15:01:24.201Z,38.92
2023-02-18T15:03:54.185Z,33.03
2023-02-18T15:06:26.994Z,29.60
2023-02-18T15:08:55.561Z,34.03
2023-02-18T15:11:26.088Z,32.70
2023-02-18T15:13:54.568Z,33.53
2023-02-18T15:16:30.893Z,28.42
2023-02-18T15:19:01.757Z,31.83
2023-02-18T15:21:34.066Z,34.22
2023-02-18T15:24:08.087Z,29.35
2023-02-18T15:26:38.577Z,43.33
2023-02-18T15:29:07.457Z,41.63
2023-02-18T15:31:38.700Z,37.03
2023-02-18T15:34:27.330Z,41.15
2023-02-18T15:36:57.991Z,35.20
2023-02-18T15:39:26.768Z,37.13
2023-02-18T15:41:56.905Z,37.42
2023-02-18T15:44:27.448Z,40.22
2023-02-18T15:46:56.320Z,37.85
2023-02-18T15:49:26.039Z,41.05
2023-02-18T15:51:59.389Z,42.30
2023-02-18T15:54:28.092Z,38.35
2023-02-18T15:56:58.543Z,51.45
2023-02-18T15:59:30.449Z,40.53
2023-02-18T16:02:10.492Z,47.80
2023-02-18T16:04:42.214Z,41.50
2023-02-18T16:07:23.598Z,45.47
2023-02-18T16:09:52.267Z,38.95
2023-02-18T16:12:29.720Z,41.28
2023-02-18T16:14:59.468Z,43.40
2023-02-18T16:17:30.132Z,33.80
2023-02-18T16:20:07.132Z,34.30
2023-02-18T16:22:45.187Z,26.95
2023-02-18T16:25:18.766Z,28.00
2023-02-18T16:27:51.351Z,26.52
2023-02-18T16:30:21.404Z,18.40
2023-02-18T16:32:52.356Z,16.98
2023-02-18T16:35:21.205Z,20.10
2023-02-18T16:37:51.426Z,18.08
2023-02-18T16:40:31.171Z,16.40
2023-02-18T16:43:01.179Z,21.13
2023-02-18T16:45:35.511Z,16.98
2023-02-18T16:48:05.613Z,16.33
2023-02-18T16:50:35.122Z,14.60
2023-02-18T16:53:05.854Z,17.80
2023-02-18T16:55:34.203Z,17.58
2023-02-18T16:58:03.188Z,21.83
2023-02-18T17:00:31.981Z,21.63
2023-02-18T17:03:01.880Z,20.67
2023-02-18T17:05:32.418Z,20.80
2023-02-18T17:08:13.424Z,16.00
2023-02-18T17:10:42.008Z,15.35
2023-02-18T17:13:14.598Z,22.88
2023-02-18T17:15:45.575Z,20.63
2023-02-18T17:18:15.065Z,19.08
2023-02-18T17:20:43.739Z,14.00
2023-02-18T17:23:15.556Z,13.40
2023-02-18T17:25:44.081Z,14.35
2023-02-18T17:28:13.261Z,11.18
2023-02-18T17:30:42.860Z,13.55
2023-02-18T17:33:14.550Z,12.15
2023-02-18T17:35:42.935Z,11.57
2023-02-18T17:38:13.380Z,17.52
2023-02-18T17:40:41.639Z,15.00
2023-02-18T17:43:12.743Z,9.95
2023-02-18T17:45:44.865Z,10.32
2023-02-18T17:48:13.442Z,14.05
2023-02-18T17:50:41.837Z,9.35
2023-02-18T17:53:13.019Z,6.22
2023-02-18T17:55:42.758Z,6.55
2023-02-18T17:58:11.663Z,7.93
2023-02-18T18:00:41.971Z,8.45
2023-02-18T18:03:12.056Z,7.53
2023-02-18T18:05:42.414Z,7.57
2023-02-18T18:08:11.662Z,10.07
2023-02-18T18:10:43.293Z,6.88
2023-02-18T18:13:17.176Z,6.32
2023-02-18T18:15:45.680Z,6.07
2023-02-18T18:18:15.541Z,8.63
2023-02-18T18:20:45.912Z,7.40
2023-02-18T18:23:16.416Z,7.30
2023-02-18T18:25:47.488Z,6.40
2023-02-18T18:28:16.805Z,6.13
2023-02-18T18:30:48.619Z,6.78
2023-02-18T18:33:18.963Z,6.28
2023-02-18T18:35:50.165Z,4.30
2023-02-18T18:40:49.652Z,3.97
2023-02-18T18:43:20.290Z,7.20
2023-02-18T18:45:49.611Z,7.45
2023-02-18T18:48:20.296Z,8.35
2023-02-18T18:50:49.078Z,4.72
2023-02-18T18:53:19.919Z,7.20
2023-02-18T18:55:50.075Z,5.93
2023-02-18T18:58:21.099Z,5.90
2023-02-18T19:00:51.801Z,5.22
2023-02-18T19:03:21.118Z,8.93
2023-02-18T19:05:50.051Z,6.07
2023-02-18T19:08:20.464Z,7.97
2023-02-18T19:10:52.263Z,6.80
2023-02-18T19:13:22.666Z,4.72
2023-02-18T19:15:53.662Z,5.82
2023-02-18T19:18:22.586Z,4.57
2023-02-18T19:20:50.852Z,4.45
2023-02-18T19:23:19.406Z,6.82
2023-02-18T19:25:47.671Z,4.97
2023-02-18T19:28:20.568Z,4.30
2023-02-18T19:30:49.209Z,5.90
2023-02-18T19:33:17.916Z,4.85
2023-02-18T19:35:46.552Z,6.82
2023-02-18T19:38:16.351Z,4.95
2023-02-18T19:40:45.153Z,6.25
2023-02-18T19:43:25.553Z,6.40
2023-02-18T19:45:54.256Z,6.80
2023-02-18T19:48:23.399Z,4.72
2023-02-18T19:50:51.873Z,6.95
2023-02-18T19:53:20.468Z,5.18
2023-02-18T19:55:57.957Z,5.28
2023-02-18T19:58:28.718Z,4.40
2023-02-18T20:00:58.108Z,5.73
2023-02-18T20:03:26.906Z,4.43
2023-02-18T20:05:55.262Z,5.03
2023-02-18T20:08:23.932Z,5.60
2023-02-18T20:10:57.899Z,6.95
2023-02-18T20:13:28.242Z,7.72
2023-02-18T20:15:56.732Z,6.68
2023-02-18T20:18:25.259Z,6.43
2023-02-18T20:20:53.506Z,7.35
2023-02-18T20:23:22.034Z,5.40
2023-02-18T20:25:50.423Z,4.47
2023-02-18T20:28:19.358Z,6.65
2023-02-18T20:30:49.305Z,4.82
2023-02-18T20:33:18.066Z,6.18
2023-02-18T20:35:46.833Z,4.70
2023-02-18T20:38:15.419Z,6.63
2023-02-18T20:40:43.800Z,5.38
2023-02-18T20:43:12.269Z,7.45
2023-02-18T20:45:40.720Z,6.85
2023-02-18T20:48:10.794Z,6.47
2023-02-18T20:50:39.280Z,4.03
2023-02-18T20:53:08.370Z,4.22
2023-02-18T20:55:36.794Z,5.97
2023-02-18T20:58:05.458Z,4.30
2023-02-18T21:00:33.911Z,5.28
2023-02-18T21:03:02.439Z,6.78
2023-02-18T21:05:32.548Z,6.22
2023-02-18T21:08:01.096Z,4.70
2023-02-18T21:10:29.508Z,4.25
2023-02-18T21:12:58.122Z,6.05
2023-02-18T21:15:26.548Z,4.10
2023-02-18T21:17:55.394Z,9.07
2023-02-18T21:20:23.604Z,5.78
2023-02-18T21:22:56.229Z,4.68
2023-02-18T21:25:24.671Z,8.45
2023-02-18T21:27:53.450Z,7.35
2023-02-18T21:30:21.805Z,6.00
2023-02-18T21:32:50.456Z,4.28
2023-02-18T21:35:18.643Z,6.50
2023-02-18T21:37:47.398Z,4.85
2023-02-18T21:40:17.373Z,4.30
2023-02-18T21:42:46.576Z,4.03
2023-02-18T21:45:17.160Z,4.40
2023-02-18T21:47:45.888Z,3.28
2023-02-18T21:50:15.761Z,4.97
2023-02-18T21:52:44.725Z,4.35
2023-02-18T21:55:13.800Z,3.90
2023-02-18T21:57:43.801Z,5.32
2023-02-18T22:00:20.064Z,6.65
2023-02-18T22:02:49.867Z,6.28
2023-02-18T22:05:18.479Z,3.40
2023-02-18T22:07:47.269Z,4.13
2023-02-18T22:10:15.643Z,4.15
2023-02-18T22:12:45.870Z,4.07
2023-02-18T22:15:14.676Z,3.60
2023-02-18T22:17:43.392Z,4.85
2023-02-18T22:20:12.344Z,4.47
2023-02-18T22:22:41.108Z,4.47
2023-02-18T22:25:10.061Z,4.68
2023-02-18T22:27:38.547Z,3.55
2023-02-18T22:30:09.796Z,4.55
2023-02-18T22:32:38.508Z,6.68
2023-02-18T22:35:07.847Z,7.55
2023-02-18T22:37:36.612Z,10.93
2023-02-18T22:40:05.243Z,7.88
2023-02-18T22:42:34.060Z,5.00
2023-02-18T22:45:03.663Z,4.95
2023-02-18T22:47:34.863Z,5.43
2023-02-18T22:50:03.278Z,5.45
2023-02-18T22:52:31.944Z,6.10
2023-02-18T22:55:00.751Z,6.95
2023-02-18T22:57:29.330Z,5.70
2023-02-18T22:59:57.889Z,7.80
2023-02-18T23:02:27.543Z,11.57
2023-02-18T23:04:57.480Z,10.73
2023-02-18T23:07:26.240Z,4.55
2023-02-18T23:09:54.791Z,12.27
2023-02-18T23:12:24.385Z,9.25
2023-02-18T23:14:52.653Z,4.45
2023-02-18T23:17:21.285Z,6.32
2023-02-18T23:19:51.231Z,8.02
2023-02-18T23:22:28.565Z,3.50
2023-02-18T23:24:56.999Z,11.38
2023-02-18T23:27:26.054Z,4.68
2023-02-18T23:29:55.180Z,7.43
2023-02-18T23:32:24.021Z,4.32
2023-02-18T23:34:52.652Z,3.50
2023-02-18T23:37:44.139Z,3.10
2023-02-18T23:40:13.905Z,3.63
2023-02-18T23:42:42.618Z,3.13
2023-02-18T23:45:11.370Z,3.30
2023-02-18T23:47:40.034Z,2.65
2023-02-18T23:50:08.666Z,4.18
2023-02-18T23:52:38.511Z,1.73
2023-02-18T23:55:07.274Z,3.00
2023-02-18T23:57:35.861Z,2.50
